Bradleyville, MO (65614)

6:21 PM CDT on August 24, 2016 (GMT -0500)
Skyline Drive - Forsyth, MO | | Change Station

Elev 906 ft 36.70 °N, 93.09 °W | Updated 1 minute ago

Partly Cloudy
Partly Cloudy
92.3 °F
Feels Like 105 °F
N
0.0
Wind Variable Wind from SSW
Gusts 9.0 mph

Today
High -- | Low -- °F
--% Chance of Precip.
Yesterday
High -- | Low -- °F
Precip. -- in
Pressure 30.07 in
Visibility 10.0 miles
Clouds Few 5000 ft
Heat Index 105 °F
Dew Point 76 °F
Humidity 60%
Rainfall 0.00 in
Snow Depth Not available.
6:36 AM 7:50 PM
Waning Gibbous, 52% visible
METAR KBBG 242257Z 19006KT 10SM FEW050 31/22 A3007
Pressure 30.07 in
Visibility 10.0 miles
Clouds Few 5000 ft
Heat Index 105 °F
Dew Point 76 °F
Humidity 60%
Rainfall 0.00 in
Snow Depth Not available.
6:36 AM 7:50 PM
Waning Gibbous, 52% visible
METAR KBBG 242257Z 19006KT 10SM FEW050 31/22 A3007

10-Day Weather Forecast

Almanac

Astronomy

Aug. 24, 2016 Rise Set
Actual Time
Civil Twilight
Nautical Twilight
Astronomical Twilight
Moon
Length of Visible Light
Length of Day
Tomorrow will be .
, % of the Moon is Illuminated

Today's Extremes

State Highs State Lows

Community

WunderPhotos

Upload Photos

1,934,731 photos uploaded!

WunderBlog® & News

Nearby

Air Quality

  Air Quality AQ Index Pollutant
Not available.

Snow Depth

Station Depth Elevation

Earthquake Activity

City Distance Mag. Time & Date
Minimum magnitude displayed is 2.5.

Coastal Water Temperatures

Place Temperature

Stations

Nearby Weather Stations

Station Location Temp. Windchill Dew Point Humidity Wind Precip. Elev Updated Type
                   

Watches & Warnings

There are currently no watches in effect.